createdAt,value
2023-01-29T00:00:46.359Z,16.23
2023-01-29T00:03:51.457Z,15.10
2023-01-29T00:06:53.237Z,17.70
2023-01-29T00:09:55.478Z,17.33
2023-01-29T00:12:59.129Z,19.30
2023-01-29T00:16:02.689Z,15.70
2023-01-29T00:19:04.533Z,15.00
2023-01-29T00:22:06.241Z,18.30
2023-01-29T00:25:09.856Z,14.60
2023-01-29T00:28:12.744Z,16.95
2023-01-29T00:31:19.796Z,17.65
2023-01-29T00:34:23.091Z,16.85
2023-01-29T00:37:27.841Z,18.45
2023-01-29T00:40:49.482Z,16.33
2023-01-29T00:44:09.981Z,21.73
2023-01-29T00:47:30.325Z,17.77
2023-01-29T00:50:32.332Z,20.80
2023-01-29T00:53:34.072Z,20.08
2023-01-29T00:56:37.291Z,21.85
2023-01-29T00:59:38.995Z,23.23
2023-01-29T01:02:59.479Z,26.70
2023-01-29T01:06:10.009Z,27.20
2023-01-29T01:09:30.415Z,21.23
2023-01-29T01:12:32.761Z,19.02
2023-01-29T01:15:36.627Z,22.13
2023-01-29T01:18:38.663Z,18.35
2023-01-29T01:21:40.659Z,24.23
2023-01-29T01:24:42.396Z,24.60
2023-01-29T01:27:44.337Z,21.23
2023-01-29T01:30:46.516Z,20.48
2023-01-29T01:33:48.469Z,17.23
2023-01-29T01:36:50.206Z,17.87
2023-01-29T01:39:52.017Z,17.75
2023-01-29T01:42:56.775Z,17.45
2023-01-29T01:45:58.466Z,30.52
2023-01-29T01:49:15.900Z,22.52
2023-01-29T01:52:19.762Z,19.45
2023-01-29T01:55:26.368Z,17.37
2023-01-29T01:58:33.975Z,21.20
2023-01-29T02:05:06.517Z,17.65
2023-01-29T02:08:27.691Z,19.95
2023-01-29T02:11:30.476Z,18.80
2023-01-29T02:14:39.599Z,19.75
2023-01-29T02:17:41.647Z,18.33
2023-01-29T02:21:03.022Z,19.98
2023-01-29T02:24:26.092Z,15.93
2023-01-29T02:27:49.151Z,19.85
2023-01-29T02:31:04.383Z,17.62
2023-01-29T02:34:20.660Z,23.27
2023-01-29T02:37:44.291Z,21.48
2023-01-29T02:40:54.236Z,16.05
2023-01-29T02:44:12.713Z,20.00
2023-01-29T02:47:31.074Z,21.20
2023-01-29T02:50:41.775Z,20.90
2023-01-29T02:53:58.608Z,20.25
2023-01-29T02:57:32.578Z,16.05
2023-01-29T03:00:39.745Z,16.10
2023-01-29T03:03:46.041Z,17.48
2023-01-29T03:06:58.515Z,15.57
2023-01-29T03:10:03.326Z,14.98
2023-01-29T03:13:26.491Z,15.88
2023-01-29T03:16:36.944Z,18.50
2023-01-29T03:19:44.142Z,15.07
2023-01-29T03:22:52.404Z,17.00
2023-01-29T03:26:17.800Z,16.52
2023-01-29T03:29:39.036Z,17.52
2023-01-29T03:32:43.025Z,17.87
2023-01-29T03:35:59.316Z,14.55
2023-01-29T03:39:01.077Z,27.55
2023-01-29T03:42:21.178Z,18.65
2023-01-29T03:45:43.772Z,20.02
2023-01-29T03:49:01.399Z,19.95
2023-01-29T03:52:15.731Z,17.98
2023-01-29T03:55:24.900Z,20.50
2023-01-29T03:58:54.661Z,16.67
2023-01-29T04:02:00.292Z,63.22
2023-01-29T04:05:14.872Z,23.05
2023-01-29T04:08:27.879Z,20.83
2023-01-29T04:11:31.182Z,22.55
2023-01-29T04:14:33.216Z,18.85
2023-01-29T04:17:39.811Z,19.23
2023-01-29T04:20:42.147Z,15.73
2023-01-29T04:23:44.944Z,15.73
2023-01-29T04:26:46.632Z,17.30
2023-01-29T04:30:04.720Z,16.17
2023-01-29T04:36:20.061Z,18.02
2023-01-29T04:39:32.848Z,15.55
2023-01-29T04:42:44.322Z,17.95
2023-01-29T04:45:54.808Z,16.42
2023-01-29T04:49:05.365Z,16.60
2023-01-29T04:52:24.451Z,13.85
2023-01-29T04:55:49.423Z,15.82
2023-01-29T04:58:57.251Z,17.83
2023-01-29T05:02:02.383Z,15.82
2023-01-29T05:05:06.230Z,15.20
2023-01-29T05:08:09.211Z,17.67
2023-01-29T05:11:11.705Z,21.55
2023-01-29T05:14:17.083Z,16.42
2023-01-29T05:17:20.747Z,20.83
2023-01-29T05:20:22.520Z,19.35
2023-01-29T05:23:24.534Z,18.02
2023-01-29T05:26:45.982Z,19.27
2023-01-29T05:29:47.977Z,21.92
2023-01-29T05:32:49.695Z,16.30
2023-01-29T05:35:51.431Z,22.87
2023-01-29T05:38:53.108Z,18.00
2023-01-29T05:41:55.019Z,25.25
2023-01-29T05:44:57.847Z,18.23
2023-01-29T05:48:00.437Z,20.08
2023-01-29T05:51:05.610Z,20.95
2023-01-29T05:54:07.260Z,18.80
2023-01-29T05:57:09.029Z,23.77
2023-01-29T06:00:13.180Z,19.10
2023-01-29T06:03:15.121Z,19.58
2023-01-29T06:06:17.389Z,20.98
2023-01-29T06:09:19.158Z,19.90
2023-01-29T06:12:21.040Z,17.20
2023-01-29T06:15:22.777Z,16.40
2023-01-29T06:18:24.656Z,22.17
2023-01-29T06:21:26.324Z,20.83
2023-01-29T06:24:28.018Z,15.68
2023-01-29T06:27:29.828Z,23.73
2023-01-29T06:30:31.998Z,24.25
2023-01-29T06:33:34.127Z,33.47
2023-01-29T06:36:36.107Z,30.73
2023-01-29T06:39:37.787Z,33.35
2023-01-29T06:42:39.409Z,28.62
2023-01-29T06:45:55.263Z,39.35
2023-01-29T06:49:02.603Z,35.47
2023-01-29T06:52:04.432Z,29.15
2023-01-29T06:55:06.615Z,28.60
2023-01-29T06:58:10.192Z,30.88
2023-01-29T07:01:17.509Z,32.40
2023-01-29T07:04:31.016Z,31.15
2023-01-29T07:07:35.847Z,31.05
2023-01-29T07:10:37.596Z,29.67
2023-01-29T07:13:39.322Z,21.98
2023-01-29T07:16:41.105Z,23.45
2023-01-29T07:19:42.854Z,24.75
2023-01-29T07:22:45.587Z,22.60
2023-01-29T07:25:49.952Z,25.60
2023-01-29T07:28:52.664Z,27.25
2023-01-29T07:31:54.550Z,25.33
2023-01-29T07:34:56.399Z,27.27
2023-01-29T07:37:58.342Z,25.25
2023-01-29T07:41:01.365Z,24.33
2023-01-29T07:44:04.799Z,25.12
2023-01-29T07:47:06.505Z,28.42
2023-01-29T07:50:08.773Z,28.00
2023-01-29T07:53:16.564Z,31.95
2023-01-29T07:56:18.339Z,29.02
2023-01-29T07:59:20.106Z,30.42
2023-01-29T08:02:22.848Z,30.73
2023-01-29T08:05:27.740Z,33.70
2023-01-29T08:08:30.716Z,30.58
2023-01-29T08:11:33.449Z,32.05
2023-01-29T08:14:36.405Z,33.10
2023-01-29T08:17:52.542Z,32.60
2023-01-29T08:21:00.930Z,32.42
2023-01-29T08:24:03.848Z,34.20
2023-01-29T08:27:05.563Z,30.77
2023-01-29T08:30:08.612Z,36.97
2023-01-29T08:33:10.453Z,39.65
2023-01-29T08:36:12.204Z,37.53
2023-01-29T08:39:13.985Z,38.47
2023-01-29T08:42:15.758Z,40.65
2023-01-29T08:45:17.513Z,40.50
2023-01-29T08:48:19.386Z,45.75
2023-01-29T08:51:22.543Z,42.03
2023-01-29T08:54:25.266Z,39.95
2023-01-29T08:57:28.998Z,36.53
2023-01-29T09:00:31.157Z,38.33
2023-01-29T09:03:32.910Z,40.25
2023-01-29T09:06:42.612Z,37.38
2023-01-29T09:09:44.288Z,42.17
2023-01-29T09:12:47.056Z,44.00
2023-01-29T09:15:48.721Z,39.45
2023-01-29T09:18:53.455Z,35.50
2023-01-29T09:21:56.324Z,37.38
2023-01-29T09:24:58.091Z,45.28
2023-01-29T09:27:59.813Z,50.38
2023-01-29T09:31:03.131Z,47.67
2023-01-29T09:34:05.093Z,44.95
2023-01-29T09:37:06.859Z,49.92
2023-01-29T09:40:30.703Z,44.10
2023-01-29T09:43:51.140Z,41.55
2023-01-29T09:46:55.773Z,44.45
2023-01-29T09:50:00.035Z,43.78
2023-01-29T09:53:11.418Z,38.92
2023-01-29T09:56:20.007Z,35.13
2023-01-29T09:59:24.849Z,34.42
2023-01-29T10:02:35.298Z,35.45
2023-01-29T10:05:56.224Z,29.50
2023-01-29T10:09:10.013Z,31.60
2023-01-29T10:12:24.965Z,35.47
2023-01-29T10:15:52.332Z,37.20
2023-01-29T10:18:56.848Z,63.50
2023-01-29T10:22:14.022Z,70.30
2023-01-29T10:25:20.262Z,47.10
2023-01-29T10:28:46.500Z,85.15
2023-01-29T10:31:55.098Z,68.80
2023-01-29T10:35:02.666Z,48.42
2023-01-29T10:41:30.269Z,42.20
2023-01-29T10:44:54.091Z,31.27
2023-01-29T10:48:26.466Z,34.20
2023-01-29T10:52:00.553Z,31.67
2023-01-29T10:55:23.554Z,36.88
2023-01-29T10:58:46.789Z,43.75
2023-01-29T11:01:48.904Z,37.50
2023-01-29T11:04:50.679Z,36.30
2023-01-29T11:08:05.363Z,34.13
2023-01-29T11:11:18.930Z,37.78
2023-01-29T11:14:42.821Z,40.80
2023-01-29T11:18:15.400Z,31.65
2023-01-29T11:21:17.510Z,34.45
2023-01-29T11:24:19.348Z,35.65
2023-01-29T11:27:26.536Z,32.22
2023-01-29T11:30:34.266Z,37.03
2023-01-29T11:33:36.181Z,40.97
2023-01-29T11:36:39.282Z,38.75
2023-01-29T11:39:47.218Z,38.10
2023-01-29T11:42:49.936Z,38.35
2023-01-29T11:45:56.438Z,39.13
2023-01-29T11:48:59.274Z,31.30
2023-01-29T11:52:10.622Z,49.88
2023-01-29T11:55:19.716Z,118.47
2023-01-29T11:58:32.852Z,52.72
2023-01-29T12:01:38.616Z,45.45
2023-01-29T12:04:41.656Z,40.47
2023-01-29T12:07:45.740Z,48.70
2023-01-29T12:10:48.155Z,30.27
2023-01-29T12:13:54.970Z,31.45
2023-01-29T12:17:05.608Z,50.17
2023-01-29T12:20:16.734Z,54.58
2023-01-29T12:23:48.497Z,32.63
2023-01-29T12:27:13.182Z,27.98
2023-01-29T12:31:01.428Z,30.58
2023-01-29T12:34:17.564Z,31.50
2023-01-29T12:37:25.901Z,26.48
2023-01-29T12:40:51.728Z,31.52
2023-01-29T12:43:58.062Z,29.63
2023-01-29T12:47:03.311Z,32.33
2023-01-29T12:50:32.652Z,28.25
2023-01-29T12:53:43.571Z,31.52
2023-01-29T12:56:53.899Z,24.48
2023-01-29T13:00:02.743Z,25.77
2023-01-29T13:03:17.159Z,28.05
2023-01-29T13:06:31.524Z,25.17
2023-01-29T13:09:37.587Z,28.33
2023-01-29T13:12:43.601Z,42.88
2023-01-29T13:15:47.346Z,35.35
2023-01-29T13:19:00.634Z,33.65
2023-01-29T13:22:07.216Z,30.73
2023-01-29T13:25:17.958Z,30.27
2023-01-29T13:28:23.824Z,26.00
2023-01-29T13:31:38.105Z,33.22
2023-01-29T13:34:49.183Z,37.85
2023-01-29T13:37:55.440Z,30.60
2023-01-29T13:41:03.400Z,30.92
2023-01-29T13:44:08.804Z,25.85
2023-01-29T13:47:22.517Z,23.15
2023-01-29T13:50:39.854Z,25.58
2023-01-29T13:53:43.550Z,22.37
2023-01-29T13:56:59.190Z,22.77
2023-01-29T14:00:01.281Z,25.95
2023-01-29T14:03:08.646Z,30.80
2023-01-29T14:06:10.509Z,31.42
2023-01-29T14:09:31.049Z,22.52
2023-01-29T14:12:37.693Z,24.70
2023-01-29T14:15:40.253Z,23.50
2023-01-29T14:18:56.731Z,29.58
2023-01-29T14:21:59.155Z,21.48
2023-01-29T14:25:05.439Z,22.10
2023-01-29T14:28:19.354Z,23.42
2023-01-29T14:31:50.914Z,24.65
2023-01-29T14:35:19.876Z,22.48
2023-01-29T14:38:25.190Z,21.92
2023-01-29T14:41:33.696Z,31.60
2023-01-29T14:44:45.218Z,30.75
2023-01-29T14:47:48.238Z,23.70
2023-01-29T14:50:56.038Z,24.75
2023-01-29T14:54:19.008Z,24.17
2023-01-29T14:57:21.124Z,22.45
2023-01-29T15:00:27.939Z,22.83
2023-01-29T15:03:40.005Z,21.62
2023-01-29T15:06:54.468Z,23.00
2023-01-29T15:10:22.660Z,26.23
2023-01-29T15:13:37.871Z,20.80
2023-01-29T15:16:48.768Z,23.60
2023-01-29T15:19:50.951Z,19.87
2023-01-29T15:22:53.059Z,20.70
2023-01-29T15:26:02.147Z,26.33
2023-01-29T15:29:06.064Z,23.98
2023-01-29T15:32:11.269Z,21.98
2023-01-29T15:35:28.612Z,19.30
2023-01-29T15:38:31.023Z,29.03
2023-01-29T15:41:33.341Z,23.42
2023-01-29T15:44:35.608Z,20.40
2023-01-29T15:47:37.803Z,17.35
2023-01-29T15:50:42.112Z,18.62
2023-01-29T15:53:58.885Z,16.77
2023-01-29T15:57:02.159Z,21.70
2023-01-29T16:00:06.998Z,20.62
2023-01-29T16:03:16.561Z,17.52
2023-01-29T16:06:19.747Z,16.02
2023-01-29T16:09:25.381Z,19.15
2023-01-29T16:12:29.175Z,18.27
2023-01-29T16:15:37.038Z,18.90
2023-01-29T16:18:54.203Z,17.35
2023-01-29T16:22:06.388Z,23.35
2023-01-29T16:25:15.289Z,16.23
2023-01-29T16:28:19.018Z,21.02
2023-01-29T16:31:28.828Z,21.65
2023-01-29T16:34:44.672Z,20.67
2023-01-29T16:37:52.855Z,23.27
2023-01-29T16:41:22.743Z,23.65
2023-01-29T16:44:46.215Z,27.35
2023-01-29T16:48:02.179Z,20.92
2023-01-29T16:51:07.909Z,34.65
2023-01-29T16:54:18.626Z,37.47
2023-01-29T16:57:25.964Z,35.22
2023-01-29T17:00:32.329Z,42.58
2023-01-29T17:03:40.877Z,29.50
2023-01-29T17:06:47.821Z,21.90
2023-01-29T17:09:54.747Z,23.60
2023-01-29T17:12:57.183Z,23.52
2023-01-29T17:16:17.028Z,21.85
2023-01-29T17:19:22.079Z,24.48
2023-01-29T17:22:25.154Z,21.33
2023-01-29T17:25:29.332Z,21.35
2023-01-29T17:28:32.267Z,24.95
2023-01-29T17:31:35.285Z,25.52
2023-01-29T17:34:37.836Z,25.02
2023-01-29T17:37:42.095Z,30.45
2023-01-29T17:41:19.532Z,20.98
2023-01-29T17:44:22.780Z,30.42
2023-01-29T17:47:25.683Z,31.23
2023-01-29T17:50:32.563Z,23.38
2023-01-29T17:53:45.598Z,21.05
2023-01-29T17:56:51.633Z,20.95
2023-01-29T17:59:54.284Z,15.38
2023-01-29T18:02:58.514Z,14.57
2023-01-29T18:06:01.036Z,17.25
2023-01-29T18:09:05.060Z,16.65
2023-01-29T18:12:11.667Z,16.65
2023-01-29T18:15:14.595Z,12.63
2023-01-29T18:18:23.238Z,15.57
2023-01-29T18:21:25.627Z,13.07
2023-01-29T18:24:28.152Z,12.32
2023-01-29T18:27:30.667Z,11.07
2023-01-29T18:30:34.520Z,14.35
2023-01-29T18:33:38.223Z,16.30
2023-01-29T18:36:41.690Z,13.35
2023-01-29T18:39:44.276Z,13.57
2023-01-29T18:42:47.544Z,12.25
2023-01-29T18:45:50.352Z,16.45
2023-01-29T18:48:53.352Z,11.25
2023-01-29T18:51:56.295Z,12.57
2023-01-29T18:54:58.976Z,14.50
2023-01-29T18:58:26.146Z,15.30
2023-01-29T19:01:29.009Z,16.10
2023-01-29T19:04:31.471Z,16.48
2023-01-29T19:07:35.526Z,15.02
2023-01-29T19:10:44.196Z,13.38
2023-01-29T19:13:48.541Z,14.23
2023-01-29T19:16:52.360Z,12.82
2023-01-29T19:19:56.897Z,19.65
2023-01-29T19:23:04.074Z,19.98
2023-01-29T19:26:09.042Z,15.65
2023-01-29T19:29:12.043Z,21.55
2023-01-29T19:32:15.664Z,15.73
2023-01-29T19:35:19.744Z,17.35
2023-01-29T19:38:22.993Z,16.60
2023-01-29T19:41:25.871Z,21.42
2023-01-29T19:44:30.714Z,19.33
2023-01-29T19:47:42.290Z,18.15
2023-01-29T19:50:52.092Z,15.70
2023-01-29T19:53:55.886Z,20.37
2023-01-29T19:56:58.718Z,16.40
2023-01-29T20:00:01.709Z,18.98
2023-01-29T20:03:05.023Z,18.45
2023-01-29T20:06:14.288Z,19.90
2023-01-29T20:09:18.130Z,20.15
2023-01-29T20:12:21.040Z,15.13
2023-01-29T20:15:23.480Z,23.45
2023-01-29T20:18:28.338Z,14.93
2023-01-29T20:21:32.322Z,20.92
2023-01-29T20:24:40.574Z,19.98
2023-01-29T20:27:44.615Z,19.58
2023-01-29T20:30:48.491Z,22.37
2023-01-29T20:33:51.839Z,18.65
2023-01-29T20:36:54.784Z,22.70
2023-01-29T20:39:57.647Z,22.62
2023-01-29T20:43:00.396Z,18.65
2023-01-29T20:46:04.531Z,23.50
2023-01-29T20:49:09.608Z,19.37
2023-01-29T20:52:13.211Z,24.00
2023-01-29T20:55:19.562Z,21.55
2023-01-29T20:58:25.223Z,19.05
2023-01-29T21:01:28.046Z,18.58
2023-01-29T21:04:31.610Z,19.73
2023-01-29T21:07:35.391Z,19.40
2023-01-29T21:10:39.496Z,22.05
2023-01-29T21:13:44.112Z,26.25
2023-01-29T21:16:47.928Z,25.60
2023-01-29T21:19:50.760Z,20.70
2023-01-29T21:22:55.773Z,24.35
2023-01-29T21:26:05.974Z,25.65
2023-01-29T21:29:08.337Z,23.08
2023-01-29T21:32:11.958Z,25.02
2023-01-29T21:35:17.416Z,28.00
2023-01-29T21:38:20.560Z,28.50
2023-01-29T21:41:43.437Z,25.15
2023-01-29T21:44:47.616Z,30.15
2023-01-29T21:47:55.377Z,29.70
2023-01-29T21:50:57.761Z,29.50
2023-01-29T21:53:59.668Z,27.35
2023-01-29T21:57:04.860Z,29.90
2023-01-29T22:00:16.171Z,30.12
2023-01-29T22:03:20.191Z,28.33
2023-01-29T22:06:29.911Z,30.37
2023-01-29T22:09:35.483Z,27.30
2023-01-29T22:12:44.563Z,26.48
2023-01-29T22:15:47.628Z,29.00
2023-01-29T22:18:58.744Z,29.92
2023-01-29T22:22:10.106Z,35.75
2023-01-29T22:25:20.933Z,27.20
2023-01-29T22:28:24.809Z,30.27
2023-01-29T22:31:28.760Z,30.83
2023-01-29T22:34:36.057Z,26.08
2023-01-29T22:37:37.751Z,34.60
2023-01-29T22:40:40.623Z,30.67
2023-01-29T22:43:44.020Z,33.00
2023-01-29T22:46:45.928Z,30.83
2023-01-29T22:49:50.098Z,30.42
2023-01-29T22:52:53.604Z,27.50
2023-01-29T22:55:55.752Z,30.50
2023-01-29T22:58:59.329Z,36.65
2023-01-29T23:02:02.015Z,35.97
2023-01-29T23:05:04.419Z,27.85
2023-01-29T23:08:06.440Z,30.27
2023-01-29T23:11:14.717Z,29.98
2023-01-29T23:14:16.848Z,26.35
2023-01-29T23:17:18.553Z,26.20
2023-01-29T23:20:21.819Z,26.40
2023-01-29T23:23:23.574Z,27.23
2023-01-29T23:26:44.402Z,26.52
2023-01-29T23:29:48.601Z,26.65
2023-01-29T23:32:51.356Z,24.30
2023-01-29T23:35:54.083Z,27.98
2023-01-29T23:38:55.827Z,26.95
2023-01-29T23:41:58.723Z,29.27
2023-01-29T23:45:00.489Z,27.42
2023-01-29T23:48:02.158Z,26.05
2023-01-29T23:51:04.249Z,29.73
2023-01-29T23:54:06.935Z,30.98
2023-01-29T23:57:08.696Z,25.48
